Terminal Aerodrome Forecast
Issued by NWS

Home | Current Version | Previous Version | Text Only | Print | Product List | Glossary On
Versions: 1 2 3 4 5 6 7 8 9 10 11 12 13 14 15 16
000
FTUS44 KLZK 250548 CCA
TAFBPK
TAF COR
KBPK 250548Z 2506/2606 00000KT P6SM SKC
     FM251500 VRB03KT P6SM BKN250
     FM260030 24007KT P6SM VCTS OVC050CB
     FM260300 32006KT P6SM OVC050 PROB30 2603/2606 4SM -TSRA BR
      BKN025CB=

USA.gov is the U.S. government's official web portal to all federal, state and local government web resources and services.